Terminal Aerodrome Forecast
Issued by NWS Twin Cities, MN

Home | Current Version | Previous Version | Text Only | Print | Product List | Glossary Off
Versions: 1 2 3 4 5 6 7 8 9 10 11 12 13 14 15 16 17 18 19 20 21 22 23 24 25 26 27 28 29 30

000
FTUS43 KMPX 010500
TAFMSP
TAF
KMSP 010520Z 0106/0212 21003KT 6SM -SHRA BR SCT025 OVC100
     FM011000 30008KT 5SM BR VCSH SCT008 OVC015
     FM011600 30012G20KT P6SM SCT040
     FM020100 27007KT P6SM SCT050 BKN090=

USA.gov is the U.S. government's official web portal to all federal, state and local government web resources and services.